Time;durP1;ratioP1;P1;durP2;ratioP2;P2;SDS_P1;SDS_P2;PMS_P1;PMS_P2;Temp;Humidity;BMP_temperature;BMP_pressure;BME280_temperature;BME280_humidity;BME280_pressure;Samples;Min_cycle;Max_cycle;Signal;HPM_P1;HPM_P2
2021/01/05 00:00:09;;;;;;;29.08;15.45;;;;;;;-0.99;77.60;95816.19;5033639;28;20396;-77
2021/01/05 00:02:35;;;;;;;30.20;15.48;;;;;;;-1.02;77.39;95817.34;5035387;28;20176;-78
2021/01/05 00:05:02;;;;;;;33.72;16.42;;;;;;;-1.02;77.68;95819.91;5046393;28;20052;-76
2021/01/05 00:07:28;;;;;;;31.40;15.63;;;;;;;-0.98;77.85;95819.59;5048638;28;20056;-76
2021/01/05 00:09:55;;;;;;;31.92;16.27;;;;;;;-0.94;77.81;95826.84;5046918;28;20045;-77
2021/01/05 00:12:21;;;;;;;32.83;16.77;;;;;;;-0.91;77.97;95815.41;5041726;28;20509;-78
2021/01/05 00:14:48;;;;;;;36.42;17.15;;;;;;;-0.87;77.68;95821.84;5011919;28;20056;-77
2021/01/05 00:17:16;;;;;;;35.80;17.70;;;;;;;-0.85;77.81;95817.34;5041028;28;20048;-77
2021/01/05 00:19:44;;;;;;;32.75;17.50;;;;;;;-0.83;77.60;95815.41;5044335;28;20045;-76
2021/01/05 00:22:11;;;;;;;34.22;17.27;;;;;;;-0.84;77.32;95811.22;5043640;28;20045;-77
2021/01/05 00:24:37;;;;;;;37.10;17.38;;;;;;;-0.81;77.64;95813.47;5049898;28;20049;-80
2021/01/05 00:27:05;;;;;;;33.05;16.85;;;;;;;-0.80;77.61;95799.63;5050849;28;20056;-76
2021/01/05 00:29:31;;;;;;;30.60;16.48;;;;;;;-0.78;77.67;95805.41;5049544;28;20416;-78
2021/01/05 00:32:19;;;;;;;34.05;16.15;;;;;;;-0.75;77.08;95804.31;5032179;28;20041;-77
2021/01/05 00:34:46;;;;;;;33.00;17.63;;;;;;;-0.72;77.46;95806.53;5051977;28;20405;-77
2021/01/05 00:37:14;;;;;;;26.27;15.63;;;;;;;-0.72;77.54;95809.91;5036178;28;20048;-76
2021/01/05 00:39:41;;;;;;;30.33;15.45;;;;;;;-0.70;77.44;95807.19;5021293;28;20041;-77
2021/01/05 00:42:08;;;;;;;27.67;15.25;;;;;;;-0.69;77.61;95806.22;5028506;28;20041;-77
2021/01/05 00:44:35;;;;;;;33.63;16.30;;;;;;;-0.69;77.77;95814.75;5047982;28;20064;-77
2021/01/05 00:47:01;;;;;;;32.35;15.23;;;;;;;-0.65;77.61;95822.94;5013454;28;20040;-77
2021/01/05 00:49:28;;;;;;;31.20;15.75;;;;;;;-0.63;77.54;95819.25;5036952;28;20049;-77
2021/01/05 00:51:54;;;;;;;28.45;14.77;;;;;;;-0.60;77.43;95819.91;5034214;28;20053;-78
2021/01/05 00:54:20;;;;;;;29.95;15.57;;;;;;;-0.57;77.61;95828.06;5023336;28;20045;-77
2021/01/05 00:57:08;;;;;;;27.15;13.88;;;;;;;-0.59;76.87;95829.22;5049141;28;20060;-77
2021/01/05 00:59:34;;;;;;;28.13;14.30;;;;;;;-0.64;77.14;95825.34;5031764;28;20408;-77
2021/01/05 01:02:02;;;;;;;28.80;14.32;;;;;;;-0.65;77.27;95826.34;5049273;28;20401;-77
2021/01/05 01:04:31;;;;;;;25.17;13.65;;;;;;;-0.66;77.48;95827.28;5056866;28;20032;-77
2021/01/05 01:06:58;;;;;;;27.48;14.63;;;;;;;-0.63;77.52;95829.56;5049718;28;20045;-77
2021/01/05 01:09:24;;;;;;;25.30;14.23;;;;;;;-0.60;77.34;95836.16;5048868;28;20049;-78
2021/01/05 01:12:01;;;;;;;25.27;12.88;;;;;;;-0.57;77.46;95828.06;5022135;28;20055;-77
2021/01/05 01:14:27;;;;;;;24.05;13.48;;;;;;;-0.56;77.15;95826.31;5050097;28;20044;-77
2021/01/05 01:16:54;;;;;;;27.42;13.02;;;;;;;-0.59;77.42;95824.06;5031360;28;20484;-77
2021/01/05 01:19:20;;;;;;;27.48;14.07;;;;;;;-0.59;77.07;95826.63;5035543;28;20100;-77
2021/01/05 01:21:49;;;;;;;22.70;12.88;;;;;;;-0.59;77.14;95822.28;5038102;28;20063;-78
2021/01/05 01:24:18;;;;;;;26.23;13.02;;;;;;;-0.62;76.97;95828.56;5051434;28;20052;-77
2021/01/05 01:26:45;;;;;;;23.10;12.85;;;;;;;-0.62;77.07;95828.56;5049609;28;21934;-77
2021/01/05 01:29:15;;;;;;;23.60;13.00;;;;;;;-0.60;77.17;95831.00;5049839;28;20041;-78
2021/01/05 01:31:42;;;;;;;28.08;13.32;;;;;;;-0.58;77.22;95828.25;5050134;28;20325;-77
2021/01/05 01:34:09;;;;;;;24.45;12.65;;;;;;;-0.56;77.30;95832.28;5035872;28;20124;-77
2021/01/05 01:36:36;;;;;;;23.48;12.43;;;;;;;-0.52;77.16;95828.41;5045668;28;20060;-77
2021/01/05 01:39:04;;;;;;;22.05;12.35;;;;;;;-0.49;77.44;95830.63;5049900;28;20044;-77
2021/01/05 01:41:31;;;;;;;24.40;13.18;;;;;;;-0.45;77.30;95834.50;5026783;28;20405;-78
2021/01/05 01:43:58;;;;;;;22.73;11.82;;;;;;;-0.44;77.13;95830.97;5051012;28;20051;-77
2021/01/05 01:46:29;;;;;;;21.80;11.57;;;;;;;-0.43;77.04;95826.63;5043895;28;20046;-77
2021/01/05 01:48:55;;;;;;;18.92;11.18;;;;;;;-0.44;76.51;95830.97;5049501;28;20045;-78
2021/01/05 01:51:22;;;;;;;22.27;11.73;;;;;;;-0.49;76.52;95828.06;5049527;28;20053;-77
2021/01/05 01:54:19;;;;;;;22.70;11.63;;;;;;;-0.50;76.47;95829.06;5054463;28;20048;-78
2021/01/05 01:57:19;;;;;;;20.27;11.57;;;;;;;-0.51;76.50;95824.84;5059729;28;20059;-77
2021/01/05 02:00:10;;;;;;;19.60;10.18;;;;;;;-0.55;76.57;95833.88;5049652;28;20051;-77
2021/01/05 02:03:16;;;;;;;18.70;10.30;;;;;;;-0.51;76.68;95829.19;5051409;28;20045;-77
2021/01/05 02:06:10;;;;;;;19.88;10.90;;;;;;;-0.54;76.26;95837.28;5045577;28;20053;-77
2021/01/05 02:09:06;;;;;;;18.13;10.30;;;;;;;-0.55;76.42;95831.28;5068769;28;20043;-77
2021/01/05 02:11:54;;;;;;;21.48;11.18;;;;;;;-0.50;76.73;95836.78;5073760;28;20071;-78
2021/01/05 02:14:32;;;;;;;16.95;9.98;;;;;;;-0.45;76.93;95842.22;5070180;28;20045;-77
2021/01/05 02:17:31;;;;;;;19.20;10.80;;;;;;;-0.44;76.29;95843.06;5078752;28;20045;-77
2021/01/05 02:20:09;;;;;;;21.00;10.27;;;;;;;-0.47;76.36;95841.59;5068377;28;20045;-77
2021/01/05 02:23:08;;;;;;;23.17;10.88;;;;;;;-0.54;75.60;95839.84;5065922;28;20052;-79
2021/01/05 02:25:44;;;;;;;18.38;9.93;;;;;;;-0.60;76.28;95830.19;5058587;28;20050;-77
2021/01/05 02:28:13;;;;;;;17.83;9.43;;;;;;;-0.63;76.65;95839.84;5069823;28;20039;-81
2021/01/05 02:30:43;;;;;;;19.35;10.52;;;;;;;-0.60;76.84;95828.41;5071338;28;20044;-77
2021/01/05 02:33:37;;;;;;;18.33;10.48;;;;;;;-0.54;77.08;95824.41;5067747;28;20036;-77
2021/01/05 02:36:13;;;;;;;17.23;9.20;;;;;;;-0.56;76.16;95829.69;5068218;28;20060;-77
2021/01/05 02:39:03;;;;;;;17.95;9.70;;;;;;;-0.66;75.92;95822.13;5065953;28;20044;-77
2021/01/05 02:42:05;;;;;;;17.23;9.13;;;;;;;-0.68;76.18;95826.66;5062441;28;20099;-77
2021/01/05 02:44:46;;;;;;;19.45;10.20;;;;;;;-0.68;76.88;95821.50;5008211;28;20052;-78
2021/01/05 02:47:23;;;;;;;19.75;10.57;;;;;;;-0.63;76.74;95826.16;5068971;28;20052;-77
2021/01/05 02:50:05;;;;;;;19.50;10.70;;;;;;;-0.56;76.65;95823.75;5068860;28;20412;-79
2021/01/05 02:52:37;;;;;;;18.85;10.30;;;;;;;-0.52;76.70;95828.41;5075257;28;20407;-77
2021/01/05 02:55:13;;;;;;;19.10;10.55;;;;;;;-0.47;76.67;95833.06;5066975;28;20047;-77
2021/01/05 02:57:54;;;;;;;20.55;11.38;;;;;;;-0.47;76.40;95825.34;5070991;28;20052;-81
2021/01/05 03:00:51;;;;;;;22.15;11.15;;;;;;;-0.47;76.00;95828.72;5074964;28;20040;-78
2021/01/05 03:03:28;;;;;;;20.83;11.02;;;;;;;-0.46;76.32;95822.59;5062599;28;20499;-78
2021/01/05 03:06:28;;;;;;;18.98;10.45;;;;;;;-0.42;76.62;95823.88;5069908;28;20052;-77
2021/01/05 03:09:12;;;;;;;21.85;11.43;;;;;;;-0.40;76.51;95823.69;5075018;28;20044;-78
2021/01/05 03:12:00;;;;;;;21.15;11.32;;;;;;;-0.37;76.63;95817.44;5064063;28;20095;-77
2021/01/05 03:14:36;;;;;;;22.50;11.10;;;;;;;-0.34;76.67;95811.94;5069329;28;20496;-77
2021/01/05 03:17:10;;;;;;;18.77;10.60;;;;;;;-0.30;76.40;95818.38;5070431;28;20966;-77
2021/01/05 03:19:48;;;;;;;18.63;11.20;;;;;;;-0.26;76.23;95810.13;5065957;28;20048;-81
2021/01/05 03:22:18;;;;;;;21.20;11.45;;;;;;;-0.23;76.48;95814.97;5070720;28;20427;-77
2021/01/05 03:24:45;;;;;;;22.67;12.10;;;;;;;-0.20;76.36;95813.84;5052406;28;20033;-77
2021/01/05 03:27:14;;;;;;;21.58;11.75;;;;;;;-0.19;76.41;95817.22;5075762;28;20059;-77
2021/01/05 03:29:40;;;;;;;19.42;10.80;;;;;;;-0.17;76.42;95802.38;5073126;28;20052;-77
2021/01/05 03:32:09;;;;;;;20.35;11.45;;;;;;;-0.16;76.41;95809.16;5073458;28;20048;-77
2021/01/05 03:34:35;;;;;;;21.50;11.25;;;;;;;-0.14;76.35;95810.59;5068585;28;20036;-77
2021/01/05 03:37:02;;;;;;;20.05;10.95;;;;;;;-0.13;76.21;95819.91;5066428;28;20049;-78
2021/01/05 03:39:28;;;;;;;17.77;10.48;;;;;;;-0.12;76.26;95811.22;5074433;28;20040;-77
2021/01/05 03:41:54;;;;;;;20.80;10.75;;;;;;;-0.12;76.44;95811.22;5068198;28;20056;-77
2021/01/05 03:44:21;;;;;;;21.58;10.93;;;;;;;-0.10;76.48;95811.88;5070038;28;20488;-77
2021/01/05 03:46:47;;;;;;;20.35;11.35;;;;;;;-0.09;76.29;95815.25;5071485;28;20059;-77
2021/01/05 03:49:13;;;;;;;20.58;11.40;;;;;;;-0.10;76.42;95814.44;5069824;28;20052;-77
2021/01/05 03:51:39;;;;;;;21.02;11.65;;;;;;;-0.10;76.33;95811.06;5070701;28;20055;-79
2021/01/05 03:54:05;;;;;;;22.42;12.07;;;;;;;-0.12;76.15;95807.88;5070667;28;20036;-78
2021/01/05 03:56:32;;;;;;;19.85;11.05;;;;;;;-0.14;76.23;95813.16;5076035;28;20059;-77
2021/01/05 03:58:58;;;;;;;21.10;11.63;;;;;;;-0.15;76.15;95811.56;5070782;28;20061;-77
2021/01/05 04:01:24;;;;;;;19.45;10.05;;;;;;;-0.15;76.38;95811.56;5068864;28;20055;-78
2021/01/05 04:03:50;;;;;;;21.80;11.82;;;;;;;-0.15;76.37;95808.97;5060945;28;20041;-77
2021/01/05 04:06:16;;;;;;;21.08;10.90;;;;;;;-0.14;76.13;95810.59;5055654;28;20040;-77
2021/01/05 04:08:43;;;;;;;19.55;10.93;;;;;;;-0.17;76.24;95810.91;5046863;28;20049;-77
2021/01/05 04:11:09;;;;;;;19.65;11.50;;;;;;;-0.16;76.26;95817.69;5044152;28;20474;-82
2021/01/05 04:13:35;;;;;;;22.05;12.00;;;;;;;-0.17;76.38;95816.06;5024326;28;20405;-77
2021/01/05 04:16:01;;;;;;;20.05;10.95;;;;;;;-0.18;76.33;95809.31;5035690;28;20060;-80
2021/01/05 04:18:27;;;;;;;19.17;11.55;;;;;;;-0.17;76.45;95813.50;5048265;28;20424;-77
2021/01/05 04:20:54;;;;;;;23.25;12.30;;;;;;;-0.18;76.40;95806.75;5017799;28;20057;-78
2021/01/05 04:23:20;;;;;;;23.05;13.00;;;;;;;-0.19;76.42;95802.53;5045984;28;20858;-78
2021/01/05 04:25:46;;;;;;;22.35;11.98;;;;;;;-0.22;76.59;95806.25;5030092;28;20059;-77
2021/01/05 04:28:12;;;;;;;25.30;12.75;;;;;;;-0.23;76.28;95804.66;5041862;28;20497;-78
2021/01/05 04:30:39;;;;;;;26.98;12.93;;;;;;;-0.26;76.51;95807.56;5034969;28;20041;-77
2021/01/05 04:33:11;;;;;;;27.48;13.48;;;;;;;-0.28;76.57;95811.28;5046596;28;20044;-77
2021/01/05 04:35:39;;;;;;;25.50;13.77;;;;;;;-0.32;76.27;95808.22;5048860;28;20367;-77
2021/01/05 04:38:06;;;;;;;26.45;14.20;;;;;;;-0.37;76.33;95817.44;5034671;28;20053;-78
2021/01/05 04:40:38;;;;;;;28.27;15.07;;;;;;;-0.42;76.66;95813.59;5044902;28;20512;-77
2021/01/05 04:43:15;;;;;;;28.65;15.38;;;;;;;-0.47;76.87;95826.13;5046039;28;20033;-77
2021/01/05 04:45:55;;;;;;;31.10;15.43;;;;;;;-0.51;77.28;95826.63;5036026;28;20036;-77
2021/01/05 04:48:41;;;;;;;33.13;15.98;;;;;;;-0.53;77.16;95818.25;5048530;28;20477;-77
2021/01/05 04:51:15;;;;;;;29.17;16.40;;;;;;;-0.55;77.45;95827.91;5048857;28;20048;-77
2021/01/05 04:53:49;;;;;;;32.70;16.00;;;;;;;-0.55;77.21;95831.28;5048611;28;20045;-77
2021/01/05 04:56:16;;;;;;;;;;;;;;;-0.53;78.28;95841.44;5032472;28;20469;-77
2021/01/05 04:58:55;;;;;;;31.73;16.10;;;;;;;-0.55;77.40;95833.88;5046894;28;19913;-77
2021/01/05 05:01:33;;;;;;;32.80;16.85;;;;;;;-0.53;77.68;95838.88;5043942;28;20037;-80
2021/01/05 05:04:21;;;;;;;31.85;16.35;;;;;;;-0.54;77.81;95838.06;5044512;28;20056;-77
2021/01/05 05:07:17;;;;;;;33.65;16.52;;;;;;;-0.56;77.93;95839.19;5015687;28;20041;-78
2021/01/05 05:10:11;;;;;;;34.65;18.38;;;;;;;-0.56;77.98;95841.78;4986498;28;20060;-77
2021/01/05 05:12:56;;;;;;;37.70;19.17;;;;;;;-0.58;77.84;95841.94;5045785;28;20052;-78
2021/01/05 05:15:40;;;;;;;36.58;18.27;;;;;;;-0.60;77.43;95843.88;5043659;28;20037;-77
2021/01/05 05:18:15;;;;;;;41.17;19.52;;;;;;;-0.59;77.97;95847.25;5051207;28;20047;-77
2021/01/05 05:21:03;;;;;;;40.92;18.60;;;;;;;-0.60;77.62;95846.44;5027892;28;20037;-78
2021/01/05 05:23:37;;;;;;;38.60;19.23;;;;;;;-0.57;77.69;95845.31;5051997;28;20044;-80
2021/01/05 05:26:03;;;;;;;37.65;19.40;;;;;;;-0.57;77.77;95840.94;5025963;28;20610;-77
2021/01/05 05:28:36;;;;;;;39.50;19.25;;;;;;;-0.53;77.87;95854.31;5057610;28;20037;-78
2021/01/05 05:31:04;;;;;;;39.15;19.40;;;;;;;-0.54;77.67;95855.31;5040368;28;20025;-76
2021/01/05 05:33:35;;;;;;;36.65;19.05;;;;;;;-0.54;77.77;95857.88;5053817;28;20053;-77
2021/01/05 05:36:16;;;;;;;45.67;21.55;;;;;;;-0.56;78.22;95859.81;5054713;28;20049;-77
2021/01/05 05:39:23;;;;;;;48.35;21.42;;;;;;;-0.55;78.88;95866.56;5049612;28;20033;-77
2021/01/05 05:42:12;;;;;;;46.38;22.20;;;;;;;-0.55;79.19;95871.69;5052798;28;20049;-79
2021/01/05 05:44:56;;;;;;;47.55;23.08;;;;;;;-0.57;79.03;95873.63;5005731;28;20045;-77
2021/01/05 05:47:30;;;;;;;51.92;22.80;;;;;;;-0.56;78.50;95870.91;5059965;28;20037;-77
2021/01/05 05:50:05;;;;;;;55.95;24.20;;;;;;;-0.56;79.09;95865.75;5054752;28;20049;-77
2021/01/05 05:52:47;;;;;;;48.90;23.77;;;;;;;-0.53;78.75;95874.91;5054496;28;20045;-77
2021/01/05 05:55:51;;;;;;;48.58;22.83;;;;;;;-0.50;79.40;95882.34;5047496;28;20056;-77
2021/01/05 05:58:21;;;;;;;54.67;24.42;;;;;;;-0.49;78.76;95887.31;5035008;28;20048;-77
2021/01/05 06:00:51;;;;;;;54.05;24.27;;;;;;;-0.47;78.63;95880.22;5060359;28;20041;-77
2021/01/05 06:03:20;;;;;;;53.95;25.15;;;;;;;-0.44;78.93;95881.69;5057689;28;20499;-78
2021/01/05 06:05:46;;;;;;;49.95;24.30;;;;;;;-0.41;78.81;95878.78;5049844;28;20053;-77
2021/01/05 06:08:15;;;;;;;52.00;23.45;;;;;;;-0.45;78.76;95886.00;5040984;28;20056;-77
2021/01/05 06:10:41;;;;;;;53.47;25.10;;;;;;;-0.46;78.77;95896.50;5022427;28;20140;-77
2021/01/05 06:13:08;;;;;;;48.30;23.23;;;;;;;-0.45;78.90;95898.91;5033040;28;20048;-77
2021/01/05 06:15:34;;;;;;;57.15;25.92;;;;;;;-0.43;78.87;95896.16;5052659;28;20064;-77
2021/01/05 06:18:05;;;;;;;51.63;23.65;;;;;;;-0.41;79.07;95896.81;5051867;28;20057;-79
2021/01/05 06:20:32;;;;;;;50.88;23.92;;;;;;;-0.36;79.16;95897.09;5050970;28;20057;-77
2021/01/05 06:22:58;;;;;;;48.38;22.40;;;;;;;-0.33;78.80;95898.56;5026448;28;20056;-77
2021/01/05 06:25:25;;;;;;;53.88;25.83;;;;;;;-0.28;78.93;95897.09;5032448;28;20489;-77
2021/01/05 06:27:51;;;;;;;55.92;25.60;;;;;;;-0.27;78.96;95898.72;5046570;28;20049;-77
2021/01/05 06:30:18;;;;;;;60.20;26.08;;;;;;;-0.29;78.93;95900.66;5043098;28;20048;-78
2021/01/05 06:32:45;;;;;;;59.25;26.15;;;;;;;-0.31;78.93;95900.03;5058141;28;20053;-77
2021/01/05 06:35:13;;;;;;;50.95;24.23;;;;;;;-0.31;79.21;95905.16;5034435;28;20048;-77
2021/01/05 06:37:39;;;;;;;59.42;25.98;;;;;;;-0.27;79.21;95905.66;5056780;28;20049;-78
2021/01/05 06:40:08;;;;;;;51.67;24.75;;;;;;;-0.28;79.03;95909.97;5035214;28;20048;-77
2021/01/05 06:42:35;;;;;;;61.53;25.50;;;;;;;-0.31;79.25;95904.38;5032756;28;20056;-79
2021/01/05 06:45:02;;;;;;;54.08;25.55;;;;;;;-0.31;79.27;95910.31;5051198;28;20485;-77
2021/01/05 06:47:28;;;;;;;52.65;25.90;;;;;;;-0.33;79.35;95922.56;5052913;28;20045;-79
2021/01/05 06:49:54;;;;;;;58.95;26.75;;;;;;;-0.33;79.53;95912.25;5039958;28;20259;-77
2021/01/05 06:52:21;;;;;;;59.72;25.52;;;;;;;-0.30;79.32;95913.69;5042930;28;20406;-76
2021/01/05 06:54:47;;;;;;;57.00;25.27;;;;;;;-0.31;79.65;95910.31;5047357;28;20045;-76
2021/01/05 06:57:13;;;;;;;55.08;25.30;;;;;;;-0.30;79.69;95911.91;5056955;28;20051;-77
2021/01/05 06:59:39;;;;;;;60.33;26.25;;;;;;;-0.29;79.63;95910.97;5039482;28;20477;-78
2021/01/05 07:02:06;;;;;;;57.00;24.85;;;;;;;-0.29;79.72;95913.53;5036760;28;20045;-76
2021/01/05 07:04:33;;;;;;;60.05;25.65;;;;;;;-0.30;79.81;95918.84;5050505;28;20044;-77
2021/01/05 07:07:01;;;;;;;59.15;25.88;;;;;;;-0.32;79.74;95906.13;5039650;28;20071;-77
2021/01/05 07:09:28;;;;;;;55.78;26.58;;;;;;;-0.35;79.75;95900.50;5048237;28;20049;-77
2021/01/05 07:11:55;;;;;;;68.22;28.13;;;;;;;-0.35;79.77;95903.88;5055448;28;20049;-77
2021/01/05 07:14:23;;;;;;;63.55;27.60;;;;;;;-0.35;79.87;95893.56;5044715;28;20461;-77
2021/01/05 07:16:50;;;;;;;63.63;28.27;;;;;;;-0.37;79.73;95894.72;5050700;28;20049;-77
2021/01/05 07:19:16;;;;;;;59.33;27.80;;;;;;;-0.39;80.24;95896.66;5048938;28;20478;-76
2021/01/05 07:21:43;;;;;;;62.33;27.45;;;;;;;-0.42;80.29;95903.72;5034136;28;20079;-77
2021/01/05 07:24:10;;;;;;;63.33;27.30;;;;;;;-0.39;80.28;95906.97;5047849;28;20417;-76
2021/01/05 07:26:39;;;;;;;62.55;27.73;;;;;;;-0.37;80.45;95907.59;5054483;28;20057;-76
2021/01/05 07:29:06;;;;;;;66.03;28.90;;;;;;;-0.36;80.39;95909.19;5037975;28;20044;-77
2021/01/05 07:31:33;;;;;;;60.40;26.27;;;;;;;-0.37;80.31;95908.41;5028768;28;20051;-79
2021/01/05 07:33:59;;;;;;;58.60;27.33;;;;;;;-0.38;80.50;95911.91;5029886;28;20063;-77
2021/01/05 07:36:30;;;;;;;63.53;27.33;;;;;;;-0.35;80.65;95911.63;5017142;28;20406;-76
2021/01/05 07:38:57;;;;;;;58.75;28.85;;;;;;;-0.36;80.64;95912.56;5030506;28;20036;-77
2021/01/05 07:41:23;;;;;;;64.00;28.48;;;;;;;-0.37;80.86;95917.91;5049498;28;20045;-77
2021/01/05 07:43:49;;;;;;;63.45;28.33;;;;;;;-0.39;81.29;95912.91;5050281;28;20113;-76
2021/01/05 07:46:16;;;;;;;65.57;29.42;;;;;;;-0.39;81.02;95907.75;5037513;28;20056;-78
2021/01/05 07:48:43;;;;;;;68.75;28.65;;;;;;;-0.38;81.34;95904.19;5033384;28;20040;-77
2021/01/05 07:51:10;;;;;;;65.32;28.92;;;;;;;-0.36;81.50;95904.84;5051556;28;20500;-77
2021/01/05 07:53:37;;;;;;;65.38;28.38;;;;;;;-0.35;81.40;95908.25;5047538;28;20029;-77
2021/01/05 07:56:04;;;;;;;65.63;28.23;;;;;;;-0.37;81.57;95900.66;5046582;28;20041;-76
2021/01/05 07:58:30;;;;;;;63.45;29.52;;;;;;;-0.40;81.39;95900.97;5053609;28;20097;-77
2021/01/05 08:00:56;;;;;;;63.53;29.20;;;;;;;-0.41;81.72;95901.97;5021180;28;20040;-79
2021/01/05 08:03:22;;;;;;;65.00;29.20;;;;;;;-0.41;81.78;95901.97;5051740;28;20056;-76
2021/01/05 08:05:49;;;;;;;61.60;27.80;;;;;;;-0.41;81.96;95907.91;5032593;28;20048;-77
2021/01/05 08:08:15;;;;;;;65.30;28.75;;;;;;;-0.37;81.96;95912.75;5053627;28;20057;-76
2021/01/05 08:10:41;;;;;;;68.35;29.75;;;;;;;-0.36;82.14;95912.56;5048778;28;20053;-77
2021/01/05 08:13:10;;;;;;;68.82;30.13;;;;;;;-0.36;82.31;95911.78;5047084;28;20496;-81
2021/01/05 08:15:37;;;;;;;66.57;27.73;;;;;;;-0.36;82.44;95906.63;5048503;28;20056;-76
2021/01/05 08:18:06;;;;;;;64.40;29.10;;;;;;;-0.36;82.51;95907.41;5049544;28;20060;-76
2021/01/05 08:20:34;;;;;;;67.80;29.20;;;;;;;-0.35;82.39;95908.25;5029153;28;20074;-77
2021/01/05 08:23:02;;;;;;;63.17;28.52;;;;;;;-0.35;82.39;95906.47;5053512;28;20468;-76
2021/01/05 08:25:30;;;;;;;71.57;30.15;;;;;;;-0.36;82.59;95907.41;5049419;28;20045;-76
2021/01/05 08:27:57;;;;;;;71.38;28.60;;;;;;;-0.36;82.98;95914.34;5051626;28;20920;-77
2021/01/05 08:30:28;;;;;;;70.05;28.75;;;;;;;-0.33;82.88;95914.84;5060019;28;20044;-77
2021/01/05 08:32:59;;;;;;;65.90;29.85;;;;;;;-0.32;82.76;95913.84;5049973;28;20044;-78
2021/01/05 08:35:26;;;;;;;66.03;28.48;;;;;;;-0.30;83.09;95911.91;5046742;28;20048;-77
2021/01/05 08:37:54;;;;;;;63.72;30.20;;;;;;;-0.30;83.04;95911.91;5040310;28;20116;-77
2021/01/05 08:40:30;;;;;;;70.72;29.90;;;;;;;-0.27;83.07;95916.75;5048362;28;20056;-77
2021/01/05 08:42:58;;;;;;;64.22;28.83;;;;;;;-0.26;83.24;95908.03;5043462;28;20044;-78
2021/01/05 08:45:25;;;;;;;64.38;27.63;;;;;;;-0.23;83.17;95910.31;5043103;28;20045;-80
2021/01/05 08:47:51;;;;;;;65.45;29.42;;;;;;;-0.22;83.20;95911.91;5034957;28;20059;-77
2021/01/05 08:50:28;;;;;;;65.05;28.52;;;;;;;-0.21;83.15;95915.28;5050201;28;20041;-77
2021/01/05 08:53:03;;;;;;;63.90;29.17;;;;;;;-0.19;83.74;95915.13;5054114;28;20056;-79
2021/01/05 08:55:29;;;;;;;67.20;27.73;;;;;;;-0.19;83.47;95920.28;5050972;28;20049;-77
2021/01/05 08:57:56;;;;;;;67.07;28.80;;;;;;;-0.18;83.46;95924.47;5052464;28;20052;-77
2021/01/05 09:00:22;;;;;;;62.17;27.17;;;;;;;-0.18;83.62;95922.69;5052282;28;20053;-79
2021/01/05 09:02:49;;;;;;;66.35;28.27;;;;;;;-0.18;83.75;95919.31;5047856;28;20063;-77
2021/01/05 09:05:15;;;;;;;65.88;29.70;;;;;;;-0.17;83.81;95920.91;5042728;28;20413;-77
2021/01/05 09:07:41;;;;;;;64.82;27.95;;;;;;;-0.14;83.56;95931.72;5044564;28;20500;-77
2021/01/05 09:10:17;;;;;;;65.40;27.75;;;;;;;-0.12;84.38;95926.41;5068195;28;20040;-76
2021/01/05 09:12:43;;;;;;;67.07;29.00;;;;;;;0.54;98.81;95922.66;5070944;28;20044;-77
2021/01/05 09:15:15;;;;;;;59.88;27.75;;;;;;;0.69;89.28;95924.53;5050930;28;20071;-77
2021/01/05 09:17:49;;;;;;;50.35;24.63;;;;;;;0.60;84.83;95924.56;5069138;28;20396;-78
2021/01/05 09:20:18;;;;;;;63.35;28.02;;;;;;;0.53;83.94;95925.41;5065761;28;20035;-77
2021/01/05 09:22:44;;;;;;;62.08;26.48;;;;;;;0.43;83.78;95919.66;5068539;28;20052;-78
2021/01/05 09:25:11;;;;;;;59.92;27.00;;;;;;;0.34;83.73;95932.56;5067578;28;20500;-77
2021/01/05 09:27:38;;;;;;;57.83;25.20;;;;;;;0.28;83.84;95925.50;5064817;28;20040;-77
2021/01/05 09:30:07;;;;;;;57.55;25.77;;;;;;;0.25;84.13;95927.59;5066072;28;20400;-77
2021/01/05 09:32:35;;;;;;;59.75;26.55;;;;;;;0.18;84.08;95924.88;5069976;28;20044;-78
2021/01/05 09:35:03;;;;;;;52.47;25.13;;;;;;;0.18;84.06;95919.72;5066955;28;20056;-78
2021/01/05 09:37:30;;;;;;;56.03;25.60;;;;;;;0.20;84.21;95930.69;5072959;28;20040;-77
2021/01/05 09:39:57;;;;;;;53.70;25.17;;;;;;;0.18;84.28;95930.84;5068456;28;20044;-78
2021/01/05 09:42:23;;;;;;;59.67;26.17;;;;;;;0.17;84.29;95939.56;5071815;28;20053;-78
2021/01/05 09:44:50;;;;;;;56.95;24.98;;;;;;;0.14;84.31;95942.44;5068880;28;20051;-77
2021/01/05 09:47:19;;;;;;;51.25;24.52;;;;;;;0.11;84.54;95945.38;5060869;28;20039;-78
2021/01/05 09:49:49;;;;;;;52.00;24.00;;;;;;;0.09;84.46;95939.56;5066583;28;20040;-78
2021/01/05 09:52:16;;;;;;;45.22;22.33;;;;;;;0.09;84.52;95942.16;5065656;28;20032;-77
2021/01/05 09:54:47;;;;;;;50.17;24.55;;;;;;;0.09;84.59;95939.56;5065323;28;20063;-77
2021/01/05 09:57:14;;;;;;;52.97;24.77;;;;;;;0.10;84.62;95938.59;5060974;28;20041;-77
2021/01/05 09:59:41;;;;;;;46.88;21.48;;;;;;;0.13;84.72;95940.84;5069227;28;20055;-78
2021/01/05 10:02:07;;;;;;;48.83;24.55;;;;;;;0.16;84.62;95932.78;5070107;28;20029;-77
2021/01/05 10:04:34;;;;;;;49.05;23.58;;;;;;;0.19;84.88;95929.09;5067856;28;20400;-79
2021/01/05 10:07:04;;;;;;;45.72;22.27;;;;;;;0.20;84.85;95934.06;5066569;28;20053;-77
2021/01/05 10:09:30;;;;;;;49.45;24.65;;;;;;;0.22;84.80;95936.47;5046459;28;20053;-78
2021/01/05 10:11:56;;;;;;;44.70;22.88;;;;;;;0.26;84.78;95934.38;5037233;28;20389;-78
2021/01/05 10:14:22;;;;;;;54.22;25.73;;;;;;;0.26;84.72;95931.81;5034314;28;20060;-77
2021/01/05 10:16:58;;;;;;;53.92;25.85;;;;;;;0.29;84.94;95931.44;5054958;28;20056;-78
2021/01/05 10:19:27;;;;;;;47.15;23.92;;;;;;;0.27;84.82;95930.81;5013656;28;20408;-78
2021/01/05 10:21:55;;;;;;;51.55;25.35;;;;;;;0.27;84.82;95926.44;5054208;28;20044;-78
2021/01/05 10:24:21;;;;;;;55.03;24.83;;;;;;;0.27;84.90;95929.03;5050896;28;20049;-78
2021/01/05 10:26:55;;;;;;;49.40;24.50;;;;;;;0.26;84.88;95924.84;5038005;28;20056;-78
2021/01/05 10:29:23;;;;;;;53.28;24.85;;;;;;;0.25;84.94;95919.84;5045802;28;20055;-78
2021/01/05 10:31:51;;;;;;;55.08;25.40;;;;;;;0.23;84.77;95920.00;5035691;28;20052;-78
2021/01/05 10:34:20;;;;;;;53.30;25.10;;;;;;;0.25;84.93;95925.81;5031117;28;20413;-80
2021/01/05 10:36:57;;;;;;;51.60;25.08;;;;;;;0.28;85.08;95922.13;5035985;28;20061;-78
2021/01/05 10:39:28;;;;;;;45.13;23.73;;;;;;;0.30;85.18;95923.56;5035304;28;20053;-78
2021/01/05 10:41:54;;;;;;;53.15;25.80;;;;;;;0.33;85.14;95917.25;5051702;28;20053;-78
2021/01/05 10:44:22;;;;;;;54.10;25.17;;;;;;;0.35;85.04;95915.31;5052531;28;20049;-79
2021/01/05 10:46:49;;;;;;;52.42;24.20;;;;;;;0.34;85.06;95906.78;5028371;28;20060;-78
2021/01/05 10:49:16;;;;;;;50.28;24.90;;;;;;;0.35;85.09;95907.56;5052494;28;20044;-78
2021/01/05 10:51:50;;;;;;;51.53;25.08;;;;;;;0.34;85.38;95908.56;5048691;28;20045;-77
2021/01/05 10:54:18;;;;;;;48.70;24.08;;;;;;;0.35;85.20;95902.41;5043738;28;20037;-78
2021/01/05 10:56:45;;;;;;;53.25;25.85;;;;;;;0.37;85.28;95908.22;5036877;28;20041;-77
2021/01/05 10:59:14;;;;;;;48.53;24.48;;;;;;;0.37;85.24;95906.44;5027125;28;20048;-78
2021/01/05 11:01:40;;;;;;;47.53;23.45;;;;;;;0.36;85.25;95899.69;5032563;28;20046;-78
2021/01/05 11:04:07;;;;;;;50.22;23.52;;;;;;;0.37;85.26;95903.84;5029510;28;20049;-78
2021/01/05 11:06:33;;;;;;;47.75;23.83;;;;;;;0.41;85.11;95901.75;5020497;28;20052;-78
2021/01/05 11:08:59;;;;;;;52.03;25.08;;;;;;;0.44;85.37;95903.97;5059267;28;20052;-78
2021/01/05 11:11:26;;;;;;;45.22;22.10;;;;;;;0.45;85.34;95903.03;5068811;28;20412;-78
2021/01/05 11:13:52;;;;;;;48.10;23.70;;;;;;;0.48;85.30;95900.09;5068056;28;20048;-78
2021/01/05 11:16:18;;;;;;;50.72;25.08;;;;;;;0.48;85.10;95894.13;5072917;28;20037;-78
2021/01/05 11:18:44;;;;;;;49.25;24.50;;;;;;;0.49;85.32;95891.41;5072600;28;20047;-78
2021/01/05 11:21:14;;;;;;;49.58;23.42;;;;;;;0.48;85.27;95887.19;5051143;28;20032;-78
2021/01/05 11:23:41;;;;;;;48.40;25.05;;;;;;;0.47;85.28;95888.19;5074374;28;20048;-78
2021/01/05 11:26:12;;;;;;;47.60;23.65;;;;;;;0.48;85.29;95882.03;5068858;28;20036;-78
2021/01/05 11:28:38;;;;;;;46.97;23.25;;;;;;;0.53;85.46;95871.25;5072265;28;20048;-78
2021/01/05 11:31:05;;;;;;;47.17;23.33;;;;;;;0.58;85.47;95868.94;5068065;28;20051;-78
2021/01/05 11:33:32;;;;;;;49.25;24.10;;;;;;;0.63;85.51;95874.41;5073162;28;20075;-78
2021/01/05 11:35:59;;;;;;;48.10;24.77;;;;;;;0.63;85.29;95873.59;5073543;28;20064;-78